Vancourt, Texas
Current Conditions -  °F | °C
As of 9:51 PM on Tuesday 25 Nov 2014 (Local Time) from KSJT Reporting Station
Clear Clear  
Wind Chill:   Ceiling: Unl
Heat Index:   Visibility: 10mi
Dew Point: -6°   Wind: 9mph
Humidity: 45%   Direction: 200°SSW
Pressure: 30.16"   Gusts: NA
Location:  31.34°N, 100.18°W
Report Text: KSJT 260351Z AUTO 20008KT 10SM CLR 05/M06 A3016 RMK AO2 SLP217 T00501061
Loading
Personal Weather Stations






























Interactive Weather Map New forecast layout! Learn more

10-Day Weather Forecast

Advertisements
Track Severe Weather on mobile